AirNav  
 
 345 users online  

09M Charleston Municipal Airport
Charleston, Mississippi, USA


FAA INFORMATION EFFECTIVE 09 NOVEMBER 2017

Location

FAA Identifier: 09M
Lat/Long: 33-59-28.9000N / 090-04-42.8000W
33-59.481667N / 090-04.713333W
33.9913611 / -90.0785556
(estimated)
Elevation: 175 ft. / 53.3 m (surveyed)
Variation: 02E (1985)
From city: 2 miles S of CHARLESTON, MS
Time zone: UTC -6 (UTC -5 during Daylight Saving Time)
Zip code: 38921

Airport Operations

Airport use: Open to the public
Control tower: no
ARTCC: MEMPHIS CENTER
FSS: GREENWOOD FLIGHT SERVICE STATION
NOTAMs facility: GWO (NOTAM-D service available)
Attendance: UNATNDD
Wind indicator: lighted
Segmented circle: no
Beacon: white-green (lighted land airport)
Operates sunset to sunrise.

Airport Communications

CTAF: 122.9
WX AWOS-3 at GNF (17 nm SE): 118.025 (662-227-3407)

Nearby radio navigation aids

VOR radial/distance  VOR name  Freq  Var
SQSr014/33.2SIDON VORTAC114.7003E

Airport Services

Parking: tiedowns
Airframe service: NONE
Powerplant service: NONE
Bottled oxygen: NONE
Bulk oxygen: NONE

Runway Information

Runway 18/36

Dimensions: 3000 x 50 ft. / 914 x 15 m
Surface: asphalt, in good condition
Weight bearing capacity: 
Single wheel: 18.0
Runway edge lights: medium intensity
RUNWAY 18  RUNWAY 36
Latitude: 33-59.728240N33-59.233503N
Longitude: 090-04.711753W090-04.715030W
Elevation: 173.0 ft.176.0 ft.
Gradient: 0.1%0.1%
Traffic pattern: leftleft
Runway heading: 178 magnetic, 180 true358 magnetic, 000 true
Markings: basic, in good conditionbasic, in good condition
Obstructions: 100 ft. trees, 3200 ft. from runway, 300 ft. left and right of centerline, 30:1 slope to clear
7 FT WILDLIFE FENCE 197 FT FROM END OF RY 18 CROSSING CNTRLN.
48 ft. pole, marked and lighted, 825 ft. from runway, 30 ft. left and right of centerline, 13:1 slope to clear

Airport Ownership and Management from official FAA records

Ownership: Publicly-owned
Owner: CITY OF CHARLESTON
PO BOX 420
CHARLESTON, MS 38921
Phone 662-647-5481
Manager: STEVE BROWN
CITY OF CHARLESTON, PO BOX 420
CHARLESTON, MS 38921
Phone 662-647-8773

Airport Operational Statistics

Aircraft based on the field: 3
Single engine airplanes: 3
    
Aircraft operations: avg 109/week *
84% local general aviation
16% transient general aviation
* for 12-month period ending 15 February 2017

Additional Remarks

A25 SPECIAL AGREEMENT.

Instrument Procedures

There are no published instrument procedures at 09M.

Some nearby airports with instrument procedures:

KGNF - Grenada Municipal Airport (17 nm SE)
KMMS - Selfs Airport (18 nm NW)
KPMU - Panola County Airport (24 nm N)
M37 - Ruleville-Drew Airport (26 nm SW)
KCKM - Fletcher Field Airport (28 nm NW)
 
Loc | Ops | Rwys | IFR | FBO | Links
Com | Nav | Svcs | Stats | Notes


 
Area around 09M (Charleston Municipal Airport)
 
Road maps at: MapQuest Bing Google
 
Aerial photo
WARNING: Photo may not be current or correct
Aerial photo of 09M (Charleston Municipal Airport)
Do you have a better or more recent aerial photo of Charleston Municipal Airport that you would like to share? If so, please send us your photo.

 
Sectional chart

 
Airport distance calculator
Flying to Charleston Municipal Airport? Find the distance to fly.

From to 09M

Sunrise and sunset
Times for 20-Nov-2017
 Local
(UTC-6)
 Zulu
(UTC)
Morning civil twilight06:1212:12
Sunrise06:3912:39
Sunset16:5322:53
Evening civil twilight17:2023:20

Current date and time
Zulu (UTC)  20-Nov-2017 08:28:23
Local (UTC-6)  20-Nov-2017 02:28:23
 
METAR
KPMU 
24nm N 
200815Z AUTO 00000KT 10SM CLR M03/M04 A3026 RMK AO2 T10311039
KCKM 
28nm NW 
200815Z AUTO 00000KT 10SM M00/M00 A3026 RMK A01
KGWO 
29nm S 
200753Z AUTO 05004KT 9SM -SN CLR 01/M02 A3025 RMK AO2 SLP243 P0000 T00111022 $
TAF
KGWO 
29nm S 
200542Z 2006/2106 00000KT P6SM SKC FM201500 12004KT P6SM SKC
NOTAMs
Click for the latest NOTAMs
NOTAMs are issued by the DoD/FAA and will open in a separate window not controlled by AirNav.

 

 
 

Would you like to see your business listed on this page?

 If your business provides an interesting product or service to pilots, flight crews, aircraft, or users of the Charleston Municipal Airport, you should consider listing it here.  To start the listing process, click on the button below
 
Add a business
 

Other Pages about Charleston Municipal Airport

Update a link
 
Copyright © AirNav, LLC. All rights reserved. Privacy Policy  Contact